sensor_id;sensor_type;location;lat;lon;timestamp;P1;durP1;ratioP1;P2;durP2;ratioP2
64252;SDS011;50592;52.958;-7.470;2022-09-09T00:04:33;9.68;;;3.83;;
64252;SDS011;50592;52.958;-7.470;2022-09-09T00:07:03;7.75;;;4.20;;
64252;SDS011;50592;52.958;-7.470;2022-09-09T00:09:48;6.70;;;3.53;;
64252;SDS011;50592;52.958;-7.470;2022-09-09T00:12:25;8.63;;;3.70;;
64252;SDS011;50592;52.958;-7.470;2022-09-09T00:15:14;8.48;;;3.78;;
64252;SDS011;50592;52.958;-7.470;2022-09-09T00:20:58;8.85;;;4.13;;
64252;SDS011;50592;52.958;-7.470;2022-09-09T00:23:39;13.80;;;4.65;;
64252;SDS011;50592;52.958;-7.470;2022-09-09T00:26:13;11.70;;;4.00;;
64252;SDS011;50592;52.958;-7.470;2022-09-09T00:28:52;13.05;;;4.97;;
64252;SDS011;50592;52.958;-7.470;2022-09-09T00:31:31;8.30;;;4.47;;
64252;SDS011;50592;52.958;-7.470;2022-09-09T00:34:14;8.88;;;5.13;;
64252;SDS011;50592;52.958;-7.470;2022-09-09T00:36:43;12.48;;;4.45;;
64252;SDS011;50592;52.958;-7.470;2022-09-09T00:39:53;11.90;;;5.00;;
64252;SDS011;50592;52.958;-7.470;2022-09-09T00:44:35;11.27;;;5.75;;
64252;SDS011;50592;52.958;-7.470;2022-09-09T00:50:03;14.55;;;5.07;;
64252;SDS011;50592;52.958;-7.470;2022-09-09T00:56:14;8.82;;;5.45;;
64252;SDS011;50592;52.958;-7.470;2022-09-09T00:59:14;11.57;;;5.15;;
64252;SDS011;50592;52.958;-7.470;2022-09-09T01:01:35;10.30;;;4.57;;
64252;SDS011;50592;52.958;-7.470;2022-09-09T01:04:01;8.98;;;4.55;;
64252;SDS011;50592;52.958;-7.470;2022-09-09T01:06:39;9.38;;;4.50;;
64252;SDS011;50592;52.958;-7.470;2022-09-09T01:11:49;7.20;;;3.77;;
64252;SDS011;50592;52.958;-7.470;2022-09-09T01:23:09;10.70;;;4.32;;
64252;SDS011;50592;52.958;-7.470;2022-09-09T01:26:22;14.48;;;4.13;;
64252;SDS011;50592;52.958;-7.470;2022-09-09T01:28:55;10.25;;;3.45;;
64252;SDS011;50592;52.958;-7.470;2022-09-09T01:31:33;8.48;;;4.43;;
64252;SDS011;50592;52.958;-7.470;2022-09-09T01:34:19;12.43;;;4.00;;
64252;SDS011;50592;52.958;-7.470;2022-09-09T01:39:31;8.60;;;4.55;;
64252;SDS011;50592;52.958;-7.470;2022-09-09T01:42:06;10.18;;;4.65;;
64252;SDS011;50592;52.958;-7.470;2022-09-09T01:44:34;10.77;;;5.05;;
64252;SDS011;50592;52.958;-7.470;2022-09-09T01:47:03;10.95;;;5.38;;
64252;SDS011;50592;52.958;-7.470;2022-09-09T01:49:29;12.02;;;4.55;;
64252;SDS011;50592;52.958;-7.470;2022-09-09T01:51:56;12.18;;;4.93;;
64252;SDS011;50592;52.958;-7.470;2022-09-09T01:54:40;14.10;;;5.10;;
64252;SDS011;50592;52.958;-7.470;2022-09-09T01:57:15;13.88;;;5.18;;
64252;SDS011;50592;52.958;-7.470;2022-09-09T02:05:38;8.88;;;5.05;;
64252;SDS011;50592;52.958;-7.470;2022-09-09T02:08:31;14.98;;;5.53;;
64252;SDS011;50592;52.958;-7.470;2022-09-09T02:11:17;12.93;;;5.63;;
64252;SDS011;50592;52.958;-7.470;2022-09-09T02:16:50;13.77;;;5.32;;
64252;SDS011;50592;52.958;-7.470;2022-09-09T02:19:25;12.27;;;5.97;;
64252;SDS011;50592;52.958;-7.470;2022-09-09T02:22:07;15.25;;;6.00;;
64252;SDS011;50592;52.958;-7.470;2022-09-09T02:24:33;9.57;;;5.05;;
64252;SDS011;50592;52.958;-7.470;2022-09-09T02:27:19;7.82;;;4.25;;
64252;SDS011;50592;52.958;-7.470;2022-09-09T02:29:47;17.65;;;4.78;;
64252;SDS011;50592;52.958;-7.470;2022-09-09T02:32:19;10.20;;;4.53;;
64252;SDS011;50592;52.958;-7.470;2022-09-09T02:34:49;13.60;;;4.68;;
64252;SDS011;50592;52.958;-7.470;2022-09-09T02:37:20;12.48;;;4.40;;
64252;SDS011;50592;52.958;-7.470;2022-09-09T02:39:52;9.02;;;4.38;;
64252;SDS011;50592;52.958;-7.470;2022-09-09T02:42:20;13.68;;;4.20;;
64252;SDS011;50592;52.958;-7.470;2022-09-09T02:44:46;8.77;;;4.50;;
64252;SDS011;50592;52.958;-7.470;2022-09-09T02:47:26;12.43;;;4.57;;
64252;SDS011;50592;52.958;-7.470;2022-09-09T02:57:56;13.63;;;4.18;;
64252;SDS011;50592;52.958;-7.470;2022-09-09T03:00:27;10.80;;;3.60;;
64252;SDS011;50592;52.958;-7.470;2022-09-09T03:02:58;6.75;;;3.30;;
64252;SDS011;50592;52.958;-7.470;2022-09-09T03:05:25;10.55;;;3.35;;
64252;SDS011;50592;52.958;-7.470;2022-09-09T03:07:52;7.45;;;3.60;;
64252;SDS011;50592;52.958;-7.470;2022-09-09T03:10:19;9.82;;;4.28;;
64252;SDS011;50592;52.958;-7.470;2022-09-09T03:12:45;9.90;;;4.72;;
64252;SDS011;50592;52.958;-7.470;2022-09-09T03:15:11;13.77;;;5.30;;
64252;SDS011;50592;52.958;-7.470;2022-09-09T03:17:38;8.77;;;4.55;;
64252;SDS011;50592;52.958;-7.470;2022-09-09T03:20:05;8.15;;;4.13;;
64252;SDS011;50592;52.958;-7.470;2022-09-09T03:22:32;10.45;;;5.07;;
64252;SDS011;50592;52.958;-7.470;2022-09-09T03:25:00;8.57;;;4.75;;
64252;SDS011;50592;52.958;-7.470;2022-09-09T03:27:29;10.50;;;4.35;;
64252;SDS011;50592;52.958;-7.470;2022-09-09T03:29:56;15.48;;;4.90;;
64252;SDS011;50592;52.958;-7.470;2022-09-09T03:32:24;10.50;;;4.63;;
64252;SDS011;50592;52.958;-7.470;2022-09-09T03:34:52;15.18;;;4.63;;
64252;SDS011;50592;52.958;-7.470;2022-09-09T03:37:18;13.25;;;4.47;;
64252;SDS011;50592;52.958;-7.470;2022-09-09T03:39:45;16.33;;;5.75;;
64252;SDS011;50592;52.958;-7.470;2022-09-09T03:42:13;14.40;;;4.47;;
64252;SDS011;50592;52.958;-7.470;2022-09-09T03:44:40;14.30;;;4.43;;
64252;SDS011;50592;52.958;-7.470;2022-09-09T03:47:07;11.85;;;4.85;;
64252;SDS011;50592;52.958;-7.470;2022-09-09T03:49:33;6.65;;;4.07;;
64252;SDS011;50592;52.958;-7.470;2022-09-09T03:51:59;10.55;;;4.07;;
64252;SDS011;50592;52.958;-7.470;2022-09-09T03:54:26;11.93;;;4.63;;
64252;SDS011;50592;52.958;-7.470;2022-09-09T03:56:52;12.45;;;4.60;;
64252;SDS011;50592;52.958;-7.470;2022-09-09T03:59:20;14.13;;;4.78;;
64252;SDS011;50592;52.958;-7.470;2022-09-09T04:01:46;13.88;;;4.65;;
64252;SDS011;50592;52.958;-7.470;2022-09-09T04:04:12;9.93;;;4.18;;
64252;SDS011;50592;52.958;-7.470;2022-09-09T04:06:38;10.18;;;4.05;;
64252;SDS011;50592;52.958;-7.470;2022-09-09T04:09:04;14.60;;;4.32;;
64252;SDS011;50592;52.958;-7.470;2022-09-09T04:11:31;11.00;;;4.00;;
64252;SDS011;50592;52.958;-7.470;2022-09-09T04:13:58;8.90;;;4.20;;
64252;SDS011;50592;52.958;-7.470;2022-09-09T04:16:23;8.00;;;3.95;;
64252;SDS011;50592;52.958;-7.470;2022-09-09T04:18:50;17.25;;;4.32;;
64252;SDS011;50592;52.958;-7.470;2022-09-09T04:21:16;12.07;;;5.65;;
64252;SDS011;50592;52.958;-7.470;2022-09-09T04:23:42;11.85;;;5.78;;
64252;SDS011;50592;52.958;-7.470;2022-09-09T04:26:08;12.10;;;5.22;;
64252;SDS011;50592;52.958;-7.470;2022-09-09T04:28:35;12.15;;;4.68;;
64252;SDS011;50592;52.958;-7.470;2022-09-09T04:31:08;10.00;;;4.45;;
64252;SDS011;50592;52.958;-7.470;2022-09-09T04:33:43;11.10;;;4.82;;
64252;SDS011;50592;52.958;-7.470;2022-09-09T04:36:09;9.70;;;4.40;;
64252;SDS011;50592;52.958;-7.470;2022-09-09T04:38:36;6.93;;;3.92;;
64252;SDS011;50592;52.958;-7.470;2022-09-09T04:41:02;12.25;;;4.88;;
64252;SDS011;50592;52.958;-7.470;2022-09-09T04:43:28;6.68;;;3.88;;
64252;SDS011;50592;52.958;-7.470;2022-09-09T04:45:56;13.27;;;4.45;;
64252;SDS011;50592;52.958;-7.470;2022-09-09T04:48:23;8.30;;;4.10;;
64252;SDS011;50592;52.958;-7.470;2022-09-09T04:51:09;9.07;;;4.63;;
64252;SDS011;50592;52.958;-7.470;2022-09-09T04:53:37;10.48;;;3.88;;
64252;SDS011;50592;52.958;-7.470;2022-09-09T04:56:13;9.77;;;3.78;;
64252;SDS011;50592;52.958;-7.470;2022-09-09T04:58:46;12.38;;;4.68;;
64252;SDS011;50592;52.958;-7.470;2022-09-09T05:01:17;10.35;;;3.85;;
64252;SDS011;50592;52.958;-7.470;2022-09-09T05:03:45;13.88;;;4.05;;
64252;SDS011;50592;52.958;-7.470;2022-09-09T05:06:15;8.52;;;3.60;;
64252;SDS011;50592;52.958;-7.470;2022-09-09T05:08:47;9.00;;;3.50;;
64252;SDS011;50592;52.958;-7.470;2022-09-09T05:11:18;8.35;;;3.50;;
64252;SDS011;50592;52.958;-7.470;2022-09-09T05:13:50;7.05;;;3.22;;
64252;SDS011;50592;52.958;-7.470;2022-09-09T05:16:18;5.97;;;3.45;;
64252;SDS011;50592;52.958;-7.470;2022-09-09T05:18:45;11.32;;;3.95;;
64252;SDS011;50592;52.958;-7.470;2022-09-09T05:21:17;9.38;;;4.00;;
64252;SDS011;50592;52.958;-7.470;2022-09-09T05:23:44;9.43;;;4.07;;
64252;SDS011;50592;52.958;-7.470;2022-09-09T05:26:12;7.78;;;3.33;;
64252;SDS011;50592;52.958;-7.470;2022-09-09T05:28:40;8.90;;;3.50;;
64252;SDS011;50592;52.958;-7.470;2022-09-09T05:31:06;9.88;;;3.65;;
64252;SDS011;50592;52.958;-7.470;2022-09-09T05:33:37;10.20;;;3.05;;
64252;SDS011;50592;52.958;-7.470;2022-09-09T05:36:10;9.65;;;3.67;;
64252;SDS011;50592;52.958;-7.470;2022-09-09T05:38:41;5.15;;;3.13;;
64252;SDS011;50592;52.958;-7.470;2022-09-09T05:41:08;6.70;;;2.42;;
64252;SDS011;50592;52.958;-7.470;2022-09-09T05:43:36;9.52;;;2.78;;
64252;SDS011;50592;52.958;-7.470;2022-09-09T05:48:34;8.55;;;2.90;;
64252;SDS011;50592;52.958;-7.470;2022-09-09T05:51:24;8.90;;;2.70;;
64252;SDS011;50592;52.958;-7.470;2022-09-09T05:53:54;5.72;;;2.80;;
64252;SDS011;50592;52.958;-7.470;2022-09-09T05:56:22;6.38;;;2.80;;
64252;SDS011;50592;52.958;-7.470;2022-09-09T05:58:51;8.65;;;2.38;;
64252;SDS011;50592;52.958;-7.470;2022-09-09T06:01:20;4.32;;;2.58;;
64252;SDS011;50592;52.958;-7.470;2022-09-09T06:03:55;5.00;;;2.67;;
64252;SDS011;50592;52.958;-7.470;2022-09-09T06:06:24;5.65;;;2.15;;
64252;SDS011;50592;52.958;-7.470;2022-09-09T06:09:00;4.18;;;2.15;;
64252;SDS011;50592;52.958;-7.470;2022-09-09T06:11:33;8.65;;;2.10;;
64252;SDS011;50592;52.958;-7.470;2022-09-09T06:14:02;5.72;;;1.67;;
64252;SDS011;50592;52.958;-7.470;2022-09-09T06:16:29;4.63;;;2.10;;
64252;SDS011;50592;52.958;-7.470;2022-09-09T06:18:58;3.65;;;1.65;;
64252;SDS011;50592;52.958;-7.470;2022-09-09T06:21:32;3.75;;;1.75;;
64252;SDS011;50592;52.958;-7.470;2022-09-09T06:24:01;5.80;;;1.80;;
64252;SDS011;50592;52.958;-7.470;2022-09-09T06:26:29;5.55;;;1.90;;
64252;SDS011;50592;52.958;-7.470;2022-09-09T06:28:56;4.57;;;1.70;;
64252;SDS011;50592;52.958;-7.470;2022-09-09T06:31:24;4.38;;;1.92;;
64252;SDS011;50592;52.958;-7.470;2022-09-09T06:33:53;3.45;;;1.35;;
64252;SDS011;50592;52.958;-7.470;2022-09-09T06:36:25;5.80;;;1.80;;
64252;SDS011;50592;52.958;-7.470;2022-09-09T06:38:53;4.90;;;1.48;;
64252;SDS011;50592;52.958;-7.470;2022-09-09T06:41:19;3.45;;;1.35;;
64252;SDS011;50592;52.958;-7.470;2022-09-09T06:43:47;3.65;;;1.30;;
64252;SDS011;50592;52.958;-7.470;2022-09-09T06:46:17;4.15;;;1.27;;
64252;SDS011;50592;52.958;-7.470;2022-09-09T06:48:45;6.15;;;2.42;;
64252;SDS011;50592;52.958;-7.470;2022-09-09T06:51:14;5.05;;;1.88;;
64252;SDS011;50592;52.958;-7.470;2022-09-09T06:53:49;4.40;;;1.30;;
64252;SDS011;50592;52.958;-7.470;2022-09-09T06:56:21;1.92;;;1.20;;
64252;SDS011;50592;52.958;-7.470;2022-09-09T06:58:55;1.67;;;1.25;;
64252;SDS011;50592;52.958;-7.470;2022-09-09T07:01:26;4.28;;;1.30;;
64252;SDS011;50592;52.958;-7.470;2022-09-09T07:03:57;4.35;;;1.60;;
64252;SDS011;50592;52.958;-7.470;2022-09-09T07:06:29;6.50;;;1.33;;
64252;SDS011;50592;52.958;-7.470;2022-09-09T07:08:59;3.83;;;1.50;;
64252;SDS011;50592;52.958;-7.470;2022-09-09T07:11:28;4.93;;;1.27;;
64252;SDS011;50592;52.958;-7.470;2022-09-09T07:13:57;3.10;;;1.45;;
64252;SDS011;50592;52.958;-7.470;2022-09-09T07:16:25;2.78;;;1.20;;
64252;SDS011;50592;52.958;-7.470;2022-09-09T07:18:52;4.57;;;1.70;;
64252;SDS011;50592;52.958;-7.470;2022-09-09T07:21:23;1.85;;;1.20;;
64252;SDS011;50592;52.958;-7.470;2022-09-09T07:23:52;2.65;;;1.30;;
64252;SDS011;50592;52.958;-7.470;2022-09-09T07:26:19;3.45;;;1.55;;
64252;SDS011;50592;52.958;-7.470;2022-09-09T07:28:47;4.97;;;1.60;;
64252;SDS011;50592;52.958;-7.470;2022-09-09T07:31:16;4.72;;;1.67;;
64252;SDS011;50592;52.958;-7.470;2022-09-09T07:33:47;7.47;;;1.73;;
64252;SDS011;50592;52.958;-7.470;2022-09-09T07:36:15;5.90;;;1.92;;
64252;SDS011;50592;52.958;-7.470;2022-09-09T07:38:43;10.55;;;1.88;;
64252;SDS011;50592;52.958;-7.470;2022-09-09T07:41:13;7.30;;;2.40;;
64252;SDS011;50592;52.958;-7.470;2022-09-09T07:43:42;5.57;;;1.80;;
64252;SDS011;50592;52.958;-7.470;2022-09-09T07:46:11;5.47;;;2.17;;
64252;SDS011;50592;52.958;-7.470;2022-09-09T07:48:38;8.05;;;2.00;;
64252;SDS011;50592;52.958;-7.470;2022-09-09T07:51:11;5.00;;;2.15;;
64252;SDS011;50592;52.958;-7.470;2022-09-09T07:53:40;3.25;;;2.05;;
64252;SDS011;50592;52.958;-7.470;2022-09-09T07:56:10;4.88;;;1.70;;
64252;SDS011;50592;52.958;-7.470;2022-09-09T07:58:39;4.57;;;2.00;;
64252;SDS011;50592;52.958;-7.470;2022-09-09T08:01:16;6.35;;;1.58;;
64252;SDS011;50592;52.958;-7.470;2022-09-09T08:03:45;2.85;;;1.50;;
64252;SDS011;50592;52.958;-7.470;2022-09-09T08:06:12;7.50;;;1.38;;
64252;SDS011;50592;52.958;-7.470;2022-09-09T08:08:39;6.00;;;1.27;;
64252;SDS011;50592;52.958;-7.470;2022-09-09T08:11:11;3.28;;;1.60;;
64252;SDS011;50592;52.958;-7.470;2022-09-09T08:13:40;4.80;;;1.38;;
64252;SDS011;50592;52.958;-7.470;2022-09-09T08:16:12;3.72;;;1.52;;
64252;SDS011;50592;52.958;-7.470;2022-09-09T08:18:40;5.68;;;2.00;;
64252;SDS011;50592;52.958;-7.470;2022-09-09T08:21:14;7.75;;;1.80;;
64252;SDS011;50592;52.958;-7.470;2022-09-09T08:23:43;6.72;;;2.20;;
64252;SDS011;50592;52.958;-7.470;2022-09-09T08:26:12;6.60;;;2.05;;
64252;SDS011;50592;52.958;-7.470;2022-09-09T08:28:40;3.75;;;1.65;;
64252;SDS011;50592;52.958;-7.470;2022-09-09T08:31:09;4.40;;;2.00;;
64252;SDS011;50592;52.958;-7.470;2022-09-09T08:33:38;3.03;;;1.48;;
64252;SDS011;50592;52.958;-7.470;2022-09-09T08:36:05;4.13;;;1.73;;
64252;SDS011;50592;52.958;-7.470;2022-09-09T08:38:32;5.88;;;2.17;;
64252;SDS011;50592;52.958;-7.470;2022-09-09T08:44:02;7.13;;;1.73;;
64252;SDS011;50592;52.958;-7.470;2022-09-09T08:46:51;3.00;;;1.90;;
64252;SDS011;50592;52.958;-7.470;2022-09-09T08:49:37;4.47;;;1.58;;
64252;SDS011;50592;52.958;-7.470;2022-09-09T08:55:20;6.35;;;1.98;;
64252;SDS011;50592;52.958;-7.470;2022-09-09T08:57:55;5.00;;;1.90;;
64252;SDS011;50592;52.958;-7.470;2022-09-09T09:00:27;7.15;;;2.28;;
64252;SDS011;50592;52.958;-7.470;2022-09-09T09:03:19;6.05;;;2.13;;
64252;SDS011;50592;52.958;-7.470;2022-09-09T09:06:01;3.03;;;1.83;;
64252;SDS011;50592;52.958;-7.470;2022-09-09T09:11:20;6.28;;;1.90;;
64252;SDS011;50592;52.958;-7.470;2022-09-09T09:13:47;5.78;;;2.22;;
64252;SDS011;50592;52.958;-7.470;2022-09-09T09:19:02;5.68;;;1.65;;
64252;SDS011;50592;52.958;-7.470;2022-09-09T09:21:36;4.07;;;1.65;;
64252;SDS011;50592;52.958;-7.470;2022-09-09T09:24:03;5.82;;;2.38;;
64252;SDS011;50592;52.958;-7.470;2022-09-09T09:26:41;3.15;;;1.50;;
64252;SDS011;50592;52.958;-7.470;2022-09-09T09:29:16;3.58;;;1.75;;
64252;SDS011;50592;52.958;-7.470;2022-09-09T09:32:02;3.90;;;1.70;;
64252;SDS011;50592;52.958;-7.470;2022-09-09T09:34:29;4.38;;;1.60;;
64252;SDS011;50592;52.958;-7.470;2022-09-09T09:36:59;3.95;;;1.65;;
64252;SDS011;50592;52.958;-7.470;2022-09-09T09:39:30;3.25;;;1.40;;
64252;SDS011;50592;52.958;-7.470;2022-09-09T09:42:09;1.63;;;1.13;;
64252;SDS011;50592;52.958;-7.470;2022-09-09T09:44:40;2.80;;;1.58;;
64252;SDS011;50592;52.958;-7.470;2022-09-09T09:47:18;3.38;;;1.10;;
64252;SDS011;50592;52.958;-7.470;2022-09-09T09:50:19;3.05;;;1.10;;
64252;SDS011;50592;52.958;-7.470;2022-09-09T09:52:53;2.45;;;0.90;;
64252;SDS011;50592;52.958;-7.470;2022-09-09T09:55:22;2.05;;;0.85;;
64252;SDS011;50592;52.958;-7.470;2022-09-09T09:57:50;2.50;;;0.90;;
64252;SDS011;50592;52.958;-7.470;2022-09-09T10:00:20;3.83;;;0.75;;
64252;SDS011;50592;52.958;-7.470;2022-09-09T10:02:59;2.58;;;0.88;;
64252;SDS011;50592;52.958;-7.470;2022-09-09T10:05:30;4.35;;;0.98;;
64252;SDS011;50592;52.958;-7.470;2022-09-09T10:13:26;5.20;;;0.90;;
64252;SDS011;50592;52.958;-7.470;2022-09-09T10:16:06;3.55;;;1.20;;
64252;SDS011;50592;52.958;-7.470;2022-09-09T10:19:53;3.45;;;1.27;;
64252;SDS011;50592;52.958;-7.470;2022-09-09T10:22:22;5.32;;;1.20;;
64252;SDS011;50592;52.958;-7.470;2022-09-09T10:27:33;3.78;;;1.30;;
64252;SDS011;50592;52.958;-7.470;2022-09-09T10:30:17;6.88;;;1.40;;
64252;SDS011;50592;52.958;-7.470;2022-09-09T10:51:57;7.63;;;1.92;;
64252;SDS011;50592;52.958;-7.470;2022-09-09T10:56:49;6.63;;;1.90;;
64252;SDS011;50592;52.958;-7.470;2022-09-09T10:59:26;4.15;;;1.67;;
64252;SDS011;50592;52.958;-7.470;2022-09-09T11:02:47;3.92;;;1.80;;
64252;SDS011;50592;52.958;-7.470;2022-09-09T11:04:59;11.40;;;2.28;;
64252;SDS011;50592;52.958;-7.470;2022-09-09T11:10:16;3.55;;;2.13;;
64252;SDS011;50592;52.958;-7.470;2022-09-09T11:13:02;4.85;;;1.92;;
64252;SDS011;50592;52.958;-7.470;2022-09-09T11:15:41;8.02;;;2.60;;
64252;SDS011;50592;52.958;-7.470;2022-09-09T11:18:13;6.90;;;2.70;;
64252;SDS011;50592;52.958;-7.470;2022-09-09T11:20:44;14.52;;;3.08;;
64252;SDS011;50592;52.958;-7.470;2022-09-09T11:23:15;6.63;;;2.13;;
64252;SDS011;50592;52.958;-7.470;2022-09-09T11:25:53;7.10;;;2.28;;
64252;SDS011;50592;52.958;-7.470;2022-09-09T11:42:06;2.78;;;1.10;;
64252;SDS011;50592;52.958;-7.470;2022-09-09T11:44:44;2.83;;;1.08;;
64252;SDS011;50592;52.958;-7.470;2022-09-09T11:50:07;0.80;;;0.65;;
64252;SDS011;50592;52.958;-7.470;2022-09-09T11:52:42;2.90;;;0.82;;
64252;SDS011;50592;52.958;-7.470;2022-09-09T12:00:33;3.75;;;0.80;;
64252;SDS011;50592;52.958;-7.470;2022-09-09T12:03:04;3.13;;;0.80;;
64252;SDS011;50592;52.958;-7.470;2022-09-09T12:05:38;3.70;;;0.90;;
64252;SDS011;50592;52.958;-7.470;2022-09-09T12:08:07;4.05;;;0.82;;
64252;SDS011;50592;52.958;-7.470;2022-09-09T12:10:38;2.03;;;0.85;;
64252;SDS011;50592;52.958;-7.470;2022-09-09T12:16:02;1.50;;;0.82;;
64252;SDS011;50592;52.958;-7.470;2022-09-09T12:18:39;2.00;;;0.75;;
64252;SDS011;50592;52.958;-7.470;2022-09-09T12:21:17;2.75;;;0.80;;
64252;SDS011;50592;52.958;-7.470;2022-09-09T12:24:11;2.67;;;0.82;;
64252;SDS011;50592;52.958;-7.470;2022-09-09T12:32:28;3.70;;;1.20;;
64252;SDS011;50592;52.958;-7.470;2022-09-09T12:37:51;4.47;;;0.80;;
64252;SDS011;50592;52.958;-7.470;2022-09-09T12:40:23;1.13;;;0.40;;
64252;SDS011;50592;52.958;-7.470;2022-09-09T12:42:53;1.75;;;0.60;;
64252;SDS011;50592;52.958;-7.470;2022-09-09T12:45:21;1.55;;;0.50;;
64252;SDS011;50592;52.958;-7.470;2022-09-09T12:47:53;0.73;;;0.40;;
64252;SDS011;50592;52.958;-7.470;2022-09-09T12:50:25;0.95;;;0.60;;
64252;SDS011;50592;52.958;-7.470;2022-09-09T12:52:56;0.98;;;0.57;;
64252;SDS011;50592;52.958;-7.470;2022-09-09T12:55:27;1.20;;;0.47;;
64252;SDS011;50592;52.958;-7.470;2022-09-09T12:57:55;2.50;;;0.60;;
64252;SDS011;50592;52.958;-7.470;2022-09-09T13:00:24;2.05;;;0.88;;
64252;SDS011;50592;52.958;-7.470;2022-09-09T13:02:52;0.90;;;0.40;;
64252;SDS011;50592;52.958;-7.470;2022-09-09T13:05:26;5.40;;;0.85;;
64252;SDS011;50592;52.958;-7.470;2022-09-09T13:08:00;1.00;;;0.50;;
64252;SDS011;50592;52.958;-7.470;2022-09-09T13:10:47;2.38;;;0.80;;
64252;SDS011;50592;52.958;-7.470;2022-09-09T13:13:19;1.65;;;0.50;;
64252;SDS011;50592;52.958;-7.470;2022-09-09T13:15:59;3.50;;;0.70;;
64252;SDS011;50592;52.958;-7.470;2022-09-09T13:18:27;4.22;;;0.73;;
64252;SDS011;50592;52.958;-7.470;2022-09-09T13:20:55;2.17;;;0.70;;
64252;SDS011;50592;52.958;-7.470;2022-09-09T13:23:24;3.05;;;0.80;;
64252;SDS011;50592;52.958;-7.470;2022-09-09T13:25:58;2.33;;;0.77;;
64252;SDS011;50592;52.958;-7.470;2022-09-09T13:28:26;4.57;;;0.70;;
64252;SDS011;50592;52.958;-7.470;2022-09-09T13:31:02;3.08;;;1.08;;
64252;SDS011;50592;52.958;-7.470;2022-09-09T13:33:31;2.22;;;0.85;;
64252;SDS011;50592;52.958;-7.470;2022-09-09T13:36:08;3.13;;;1.00;;
64252;SDS011;50592;52.958;-7.470;2022-09-09T13:38:40;3.00;;;0.90;;
64252;SDS011;50592;52.958;-7.470;2022-09-09T13:41:24;0.98;;;0.75;;
64252;SDS011;50592;52.958;-7.470;2022-09-09T13:43:53;4.88;;;1.25;;
64252;SDS011;50592;52.958;-7.470;2022-09-09T13:46:31;3.05;;;1.27;;
64252;SDS011;50592;52.958;-7.470;2022-09-09T13:49:03;3.40;;;1.45;;
64252;SDS011;50592;52.958;-7.470;2022-09-09T13:51:49;4.10;;;1.25;;
64252;SDS011;50592;52.958;-7.470;2022-09-09T13:54:18;4.28;;;1.20;;
64252;SDS011;50592;52.958;-7.470;2022-09-09T13:56:45;3.50;;;1.35;;
64252;SDS011;50592;52.958;-7.470;2022-09-09T13:59:12;2.67;;;1.13;;
64252;SDS011;50592;52.958;-7.470;2022-09-09T14:01:45;2.03;;;0.88;;
64252;SDS011;50592;52.958;-7.470;2022-09-09T14:04:10;8.52;;;1.42;;
64252;SDS011;50592;52.958;-7.470;2022-09-09T14:06:37;3.05;;;0.85;;
64252;SDS011;50592;52.958;-7.470;2022-09-09T14:09:10;3.72;;;1.35;;
64252;SDS011;50592;52.958;-7.470;2022-09-09T14:11:37;3.83;;;1.20;;
64252;SDS011;50592;52.958;-7.470;2022-09-09T14:14:03;3.80;;;1.15;;
64252;SDS011;50592;52.958;-7.470;2022-09-09T14:16:30;6.57;;;1.15;;
64252;SDS011;50592;52.958;-7.470;2022-09-09T14:18:56;3.13;;;1.13;;
64252;SDS011;50592;52.958;-7.470;2022-09-09T14:21:22;5.85;;;1.17;;
64252;SDS011;50592;52.958;-7.470;2022-09-09T14:23:49;5.63;;;1.33;;
64252;SDS011;50592;52.958;-7.470;2022-09-09T14:26:15;3.97;;;1.40;;
64252;SDS011;50592;52.958;-7.470;2022-09-09T14:28:40;6.65;;;1.40;;
64252;SDS011;50592;52.958;-7.470;2022-09-09T14:31:06;5.07;;;1.85;;
64252;SDS011;50592;52.958;-7.470;2022-09-09T14:33:32;6.18;;;1.73;;
64252;SDS011;50592;52.958;-7.470;2022-09-09T14:35:59;5.93;;;1.73;;
64252;SDS011;50592;52.958;-7.470;2022-09-09T14:38:30;2.53;;;1.35;;
64252;SDS011;50592;52.958;-7.470;2022-09-09T14:40:59;3.58;;;1.58;;
64252;SDS011;50592;52.958;-7.470;2022-09-09T14:43:28;5.78;;;1.77;;
64252;SDS011;50592;52.958;-7.470;2022-09-09T14:45:56;5.03;;;1.63;;
64252;SDS011;50592;52.958;-7.470;2022-09-09T14:48:22;3.50;;;1.50;;
64252;SDS011;50592;52.958;-7.470;2022-09-09T14:50:48;3.53;;;1.10;;
64252;SDS011;50592;52.958;-7.470;2022-09-09T14:53:15;4.20;;;1.25;;
64252;SDS011;50592;52.958;-7.470;2022-09-09T14:55:42;6.68;;;1.55;;
64252;SDS011;50592;52.958;-7.470;2022-09-09T14:58:07;4.47;;;1.65;;
64252;SDS011;50592;52.958;-7.470;2022-09-09T15:00:33;5.00;;;1.60;;
64252;SDS011;50592;52.958;-7.470;2022-09-09T15:02:59;5.45;;;1.98;;
64252;SDS011;50592;52.958;-7.470;2022-09-09T15:05:25;6.70;;;1.90;;
64252;SDS011;50592;52.958;-7.470;2022-09-09T15:07:50;6.10;;;1.88;;
64252;SDS011;50592;52.958;-7.470;2022-09-09T15:10:16;5.70;;;2.25;;
64252;SDS011;50592;52.958;-7.470;2022-09-09T15:12:42;4.90;;;1.85;;
64252;SDS011;50592;52.958;-7.470;2022-09-09T15:15:09;4.22;;;2.08;;
64252;SDS011;50592;52.958;-7.470;2022-09-09T15:17:35;5.00;;;2.70;;
64252;SDS011;50592;52.958;-7.470;2022-09-09T15:20:04;8.43;;;3.92;;
64252;SDS011;50592;52.958;-7.470;2022-09-09T15:22:31;6.78;;;2.70;;
64252;SDS011;50592;52.958;-7.470;2022-09-09T15:24:57;6.47;;;2.63;;
64252;SDS011;50592;52.958;-7.470;2022-09-09T15:27:23;5.07;;;2.88;;
64252;SDS011;50592;52.958;-7.470;2022-09-09T15:29:49;5.65;;;2.88;;
64252;SDS011;50592;52.958;-7.470;2022-09-09T15:32:17;4.45;;;2.17;;
64252;SDS011;50592;52.958;-7.470;2022-09-09T15:34:43;11.30;;;2.47;;
64252;SDS011;50592;52.958;-7.470;2022-09-09T15:37:12;4.93;;;1.60;;
64252;SDS011;50592;52.958;-7.470;2022-09-09T15:39:38;6.03;;;1.30;;
64252;SDS011;50592;52.958;-7.470;2022-09-09T15:42:06;5.45;;;1.55;;
64252;SDS011;50592;52.958;-7.470;2022-09-09T15:44:42;3.60;;;1.10;;
64252;SDS011;50592;52.958;-7.470;2022-09-09T15:47:10;5.22;;;1.23;;
64252;SDS011;50592;52.958;-7.470;2022-09-09T15:49:37;2.92;;;1.15;;
64252;SDS011;50592;52.958;-7.470;2022-09-09T15:52:04;2.60;;;1.17;;
64252;SDS011;50592;52.958;-7.470;2022-09-09T15:54:31;2.10;;;1.15;;
64252;SDS011;50592;52.958;-7.470;2022-09-09T15:57:00;2.53;;;1.00;;
64252;SDS011;50592;52.958;-7.470;2022-09-09T15:59:28;1.98;;;0.95;;
64252;SDS011;50592;52.958;-7.470;2022-09-09T16:01:55;1.60;;;0.63;;
64252;SDS011;50592;52.958;-7.470;2022-09-09T16:04:23;2.60;;;0.70;;
64252;SDS011;50592;52.958;-7.470;2022-09-09T16:06:53;1.55;;;0.63;;
64252;SDS011;50592;52.958;-7.470;2022-09-09T16:09:27;3.03;;;1.25;;
64252;SDS011;50592;52.958;-7.470;2022-09-09T16:11:55;1.88;;;0.80;;
64252;SDS011;50592;52.958;-7.470;2022-09-09T16:14:23;1.55;;;0.98;;
64252;SDS011;50592;52.958;-7.470;2022-09-09T16:16:50;2.58;;;0.85;;
64252;SDS011;50592;52.958;-7.470;2022-09-09T16:19:16;2.22;;;0.90;;
64252;SDS011;50592;52.958;-7.470;2022-09-09T16:21:43;2.47;;;0.82;;
64252;SDS011;50592;52.958;-7.470;2022-09-09T16:24:11;3.05;;;1.13;;
64252;SDS011;50592;52.958;-7.470;2022-09-09T16:26:39;2.05;;;1.00;;
64252;SDS011;50592;52.958;-7.470;2022-09-09T16:29:07;2.50;;;1.10;;
64252;SDS011;50592;52.958;-7.470;2022-09-09T16:31:34;6.15;;;1.00;;
64252;SDS011;50592;52.958;-7.470;2022-09-09T16:33:59;8.68;;;1.00;;
64252;SDS011;50592;52.958;-7.470;2022-09-09T16:36:27;4.80;;;0.90;;
64252;SDS011;50592;52.958;-7.470;2022-09-09T16:38:56;4.28;;;1.20;;
64252;SDS011;50592;52.958;-7.470;2022-09-09T16:41:27;2.42;;;1.27;;
64252;SDS011;50592;52.958;-7.470;2022-09-09T16:46:21;5.22;;;1.50;;
64252;SDS011;50592;52.958;-7.470;2022-09-09T16:48:49;2.85;;;1.15;;
64252;SDS011;50592;52.958;-7.470;2022-09-09T16:54:00;4.13;;;1.73;;
64252;SDS011;50592;52.958;-7.470;2022-09-09T16:56:28;3.72;;;1.30;;
64252;SDS011;50592;52.958;-7.470;2022-09-09T16:58:58;4.97;;;2.28;;
64252;SDS011;50592;52.958;-7.470;2022-09-09T17:01:26;5.55;;;1.55;;
64252;SDS011;50592;52.958;-7.470;2022-09-09T17:03:53;2.72;;;1.45;;
64252;SDS011;50592;52.958;-7.470;2022-09-09T17:06:20;2.05;;;1.42;;